ADDS METAR Data INFO
IDs: Format: Raw Decoded Include TAF

Data at: 0856 UTC 22 Feb 2018

KRNC 220835Z AUTO 21008G14KT 10SM BKN034 BKN045 OVC070 20/16 A3026 RMK A01
KRNC 220815Z AUTO 20006G11KT 10SM OVC035 19/16 A3026 RMK A01
KRNC 220755Z AUTO 21006KT 10SM OVC036 17/15 A3026 RMK A01
KRNC 220735Z AUTO 23003KT 10SM OVC035 13/13 A3026 RMK A01
KRNC 220715Z AUTO 00000KT 10SM OVC035 13/13 A3026 RMK A01
KRNC 220655Z AUTO 00000KT 9SM OVC036 13/13 A3026 RMK A01
KRNC 220635Z AUTO 00000KT 10SM SCT035 BKN042 13/13 A3026 RMK A01
KRNC 220615Z AUTO 00000KT 10SM BKN041 BKN047 BKN070 13/13 A3027 RMK A01
KRNC 220555Z AUTO 00000KT 10SM FEW035 BKN043 OVC070 14/13 A3027 RMK A01
KRNC 220535Z AUTO 00000KT 10SM BKN043 BKN048 BKN055 14/14 A3027 RMK A01
KRNC 220515Z AUTO 00000KT 10SM FEW038 BKN047 BKN055 14/13 A3027 RMK A01
KRNC 220455Z AUTO 05004KT 10SM FEW005 FEW029 OVC045 14/14 A3028 RMK A01
KRNC 220435Z AUTO 03004KT 10SM FEW005 FEW030 OVC039 14/14 A3029 RMK A01
KRNC 220415Z AUTO 06004KT 10SM OVC038 15/14 A3029 RMK A01
KRNC 220355Z AUTO 06005KT 10SM OVC036 15/14 A3029 RMK A01
KRNC 220035Z AUTO 35005KT 10SM FEW013 SCT043 OVC049 16/14 A3032 RMK A01
KRNC 220015Z AUTO 35007KT 10SM SCT048 BKN055 BKN100 16/14 A3031 RMK A01
KRNC 212355Z AUTO 34005KT 10SM FEW048 BKN100 17/14 A3031 RMK A01
KRNC 212335Z AUTO 02004KT 10SM SCT100 17/15 A3029 RMK A01
KRNC 212315Z AUTO 01004KT 10SM FEW049 FEW065 SCT080 17/15 A3029 RMK A01
KRNC 212255Z AUTO 03009KT 10SM FEW018 FEW047 SCT060 17/15 A3029 RMK A01
KRNC 212235Z AUTO 03009KT 10SM FEW012 SCT048 BKN055 18/15 A3029 RMK A01
KRNC 212215Z AUTO 02007KT 10SM FEW047 SCT055 SCT090 19/15 A3028 RMK A01
KRNC 212155Z AUTO 01009KT 10SM FEW060 FEW075 FEW085 20/16 A3027 RMK A01
KRNC 212135Z AUTO 35007G13KT 10SM FEW050 SCT060 BKN075 21/16 A3026 RMK A01
KRNC 212115Z AUTO 36010KT 10SM SCT049 SCT055 21/16 A3026 RMK A01
KRNC 212055Z AUTO 34009KT 10SM FEW044 FEW055 FEW065 22/17 A3025 RMK A01
KRNC 212035Z AUTO 33008G14KT 10SM SCT043 BKN049 BKN060 22/16 A3026 RMK A01
KRNC 212015Z AUTO 20009G14KT 160V230 10SM SCT042 BKN050 OVC075 25/16 A3025 RMK A01
KRNC 211955Z AUTO 19008G14KT 160V220 10SM BKN042 BKN055 BKN065 25/16 A3026 RMK A01
KRNC 211935Z AUTO 22009G17KT 10SM FEW040 SCT047 BKN055 25/16 A3026 RMK A01
KRNC 211915Z AUTO 22011G17KT 190V250 10SM FEW041 FEW050 SCT055 25/16 A3027 RMK A01
KRNC 211855Z AUTO 20008G17KT 180V240 10SM FEW034 SCT047 BKN090 25/17 A3027 RMK A01
KRNC 211835Z AUTO 22011G18KT 10SM SCT033 BKN046 BKN050 24/17 A3028 RMK A01
KRNC 211815Z AUTO 20013G19KT 170V230 10SM SCT031 SCT039 BKN048 25/17 A3028 RMK A01
KRNC 211755Z AUTO 20011G19KT 10SM BKN032 OVC043 24/17 A3029 RMK A01
KRNC 211735Z AUTO 21012KT 10SM BKN031 BKN039 BKN090 24/17 A3030 RMK A01
KRNC 211715Z AUTO 21011KT 10SM SCT030 SCT055 BKN095 23/17 A3031 RMK A01
KRNC 211655Z AUTO 22012G18KT 10SM FEW055 OVC100 23/16 A3032 RMK A01
KRNC 211635Z AUTO 21010G21KT 10SM FEW026 SCT055 BKN075 23/17 A3033 RMK A01
KRNC 211615Z AUTO 21009G15KT 10SM FEW024 SCT029 BKN055 22/17 A3033 RMK A01
KRNC 211555Z AUTO 22010G23KT 10SM SCT022 BKN027 BKN042 22/17 A3033 RMK A01
KRNC 211535Z AUTO 20015G24KT 10SM SCT024 BKN043 BKN055 22/17 A3033 RMK A01
KRNC 211515Z AUTO 21011KT 10SM SCT027 BKN042 BKN055 23/18 A3033 RMK A01
KRNC 211455Z AUTO 21011G17KT 10SM FEW024 SCT042 BKN075 22/17 A3033 RMK A01
KRNC 211435Z AUTO 21009G18KT 10SM SCT040 SCT075 BKN110 21/17 A3032 RMK A01
KRNC 211415Z AUTO 21008G15KT 9SM FEW039 FEW050 SCT075 22/17 A3031 RMK A01
KRNC 211355Z AUTO 20009G21KT 10SM FEW025 21/17 A3031 RMK A01
KRNC 211335Z AUTO 21010KT 10SM SCT024 20/17 A3030 RMK A01
KRNC 211315Z AUTO 20006KT 10SM BKN024 BKN031 20/17 A3030 RMK A01
KRNC 211255Z AUTO 20007KT 170V230 10SM BKN027 BKN032 20/17 A3029 RMK A01
KRNC 210755Z AUTO 20010KT 10SM BKN031 BKN039 OVC090 21/16 A3025 RMK A01
KRNC 210735Z AUTO 19008KT 10SM SCT032 BKN042 OVC090 20/16 A3026 RMK A01
KRNC 210715Z AUTO 20008G13KT 10SM FEW030 SCT038 BKN050 20/16 A3026 RMK A01
KRNC 210655Z AUTO 20007G15KT 10SM FEW040 FEW050 21/16 A3026 RMK A01
KRNC 210635Z AUTO 19012G18KT 10SM FEW042 FEW080 21/16 A3026 RMK A01
KRNC 210615Z AUTO 20010G18KT 10SM FEW048 SCT080 21/16 A3026 RMK A01
KRNC 210555Z AUTO 19013G18KT 10SM BKN080 21/16 A3026 RMK A01